Stoughton, Canada
Current Conditions -  °F | °C
As of 12:00 AM on Thursday 23 Oct 2014 (Local Time) from CYEN Reporting Station
Few Clouds Few Clouds  
Wind Chill: 33°   Ceiling: Unl
Heat Index: 39°   Visibility: 15mi
Dew Point: 36°   Wind: 9mph
Humidity: 87%   Direction: 240°WSW
Pressure: 29.8"   Gusts: NA
Location:  49.68°N, 103.02°W
Report Text: CYEN 230600Z 24008KT 15SM FEW060 04/02 A2980 RMK SC2 SLP108
Loading
Personal Weather Stations






























Interactive Weather Map
Tropical Storm Tracking
New forecast layout! Learn more

10-Day Weather Forecast

Advertisements
Track Severe Weather on mobile